Duncanville, AL

9:49 PM CDT on August 29, 2014 (GMT -0500)
Mallard Creek | Change Station
CLOSE
Current Station
Personal Weather Station
Location: Tuscaloosa, AL
Elevation: 177 ft
Nearby Weather Stations

Elev 177 ft 33.14 °N, 87.56 °W | Updated 13 minutes ago

Clear
Clear
79.2 °F
Feels Like 81 °F
N
0.0
Wind Variable Wind from ESE

Today
High -- | Low -- °F
--% Chance of Precip.
Yesterday
High -- | Low -- °F
Precip. -- in
6:22 AM 7:18 PM
Waxing Crescent, 18% visible
Pressure 29.99 in
Visibility 10.0 miles
Clouds Clear
Heat Index 81 °F
Dew Point 67 °F
Humidity 67%
Rainfall 0.00 in
Snow Depth Not available.
UV 0 out of 12
Pollen 9.50 out of 12
Ozone Good
PM2.5 Moderate
Flu Activity Not available.
METAR KTCL 300153Z AUTO 00000KT 10SM CLR 26/19 A3000 RMK AO2 SLP155 T02610194

More Conditions Fewer Conditions

Pressure 29.99 in
Visibility 10.0 miles
Clouds Clear
Heat Index 81 °F
Dew Point 67 °F
Humidity 67%
Rainfall 0.00 in
Snow Depth Not available.
UV 0 out of 12
Pollen 9.50 out of 12
Ozone Good
PM2.5 Moderate
Flu Activity Not available.
METAR KTCL 300153Z AUTO 00000KT 10SM CLR 26/19 A3000 RMK AO2 SLP155 T02610194

More Conditions Fewer Conditions

10-Day Weather Forecast

Almanac

Astronomy

Aug. 29, 2014 Rise Set
Actual Time 6:22 AM CDT 7:18 PM CDT
Civil Twilight 5:56 AM CDT 7:43 PM CDT
Nautical Twilight 5:26 AM CDT 8:13 PM CDT
Astronomical Twilight 4:55 AM CDT 8:44 PM CDT
Moon 9:57 AM CDT (8/29) 9:31 PM CDT (8/29)
Length of Visible Light 13h 47m
Length of Day
12h 56m
Tomorrow will be 1m 56s shorter.
Waxing Crescent, 18% of the Moon is Illuminated
Today
Waxing Crescent
Sep 2
First Quarter
Sep 8
Full
Sep 15
Last Quarter
Sep 24
New

Today's Extremes

State Highs State Lows

Community

WunderPhotos

Upload Photos

1,748,421 photos uploaded!

Nearby

Air Quality

  Air Quality AQ Index Pollutant
Yesterday Moderate
OZONE
Yesterday Good
PM10
Current Moderate
PM2.5
Current Good
OZONE
Friday Moderate
PM2.5
Friday Moderate
OZONE
Saturday Moderate
PM2.5
Saturday Good
OZONE
Sunday Good
OZONE
Sunday Good
PM2.5
Monday Good
PM2.5
Monday Good
OZONE
Tuesday Good
OZONE

Snow Depth

Station Depth Elevation
No new snow has been reported.

Earthquake Activity

City Distance Mag. Time & Date
No recent earthquake activity has been reported nearby.
Minimum magnitude displayed is 2.5.

Coastal Water Temperatures

Place Temperature
No Stations Reporting

Nearby Weather Stations